sensor_id;sensor_type;location;lat;lon;timestamp;pressure;altitude;pressure_sealevel;temperature
81657;BMP280;71067;51.482;-0.580;2023-08-06T00:01:59;101152.50;;;14.50
81657;BMP280;71067;51.482;-0.580;2023-08-06T00:04:25;101158.69;;;14.49
81657;BMP280;71067;51.482;-0.580;2023-08-06T00:06:50;101160.22;;;14.44
81657;BMP280;71067;51.482;-0.580;2023-08-06T00:09:15;101157.13;;;14.40
81657;BMP280;71067;51.482;-0.580;2023-08-06T00:11:41;101163.84;;;14.35
81657;BMP280;71067;51.482;-0.580;2023-08-06T00:14:08;101163.38;;;14.31
81657;BMP280;71067;51.482;-0.580;2023-08-06T00:16:34;101169.13;;;14.27
81657;BMP280;71067;51.482;-0.580;2023-08-06T00:18:59;101169.13;;;14.27
81657;BMP280;71067;51.482;-0.580;2023-08-06T00:21:24;101177.47;;;14.22
81657;BMP280;71067;51.482;-0.580;2023-08-06T00:23:50;101184.47;;;14.22
81657;BMP280;71067;51.482;-0.580;2023-08-06T00:26:15;101195.41;;;14.17
81657;BMP280;71067;51.482;-0.580;2023-08-06T00:28:40;101186.00;;;14.08
81657;BMP280;71067;51.482;-0.580;2023-08-06T00:31:06;101197.53;;;14.14
81657;BMP280;71067;51.482;-0.580;2023-08-06T00:33:31;101197.06;;;14.10
81657;BMP280;71067;51.482;-0.580;2023-08-06T00:35:56;101202.09;;;14.12
81657;BMP280;71067;51.482;-0.580;2023-08-06T00:38:21;101218.25;;;14.07
81657;BMP280;71067;51.482;-0.580;2023-08-06T00:40:47;101214.69;;;14.00
81657;BMP280;71067;51.482;-0.580;2023-08-06T00:43:12;101208.34;;;14.03
81657;BMP280;71067;51.482;-0.580;2023-08-06T00:45:37;101220.56;;;14.02
81657;BMP280;71067;51.482;-0.580;2023-08-06T00:48:05;101225.28;;;13.98
81657;BMP280;71067;51.482;-0.580;2023-08-06T00:50:30;101226.44;;;13.96
81657;BMP280;71067;51.482;-0.580;2023-08-06T00:52:56;101233.63;;;13.94
81657;BMP280;71067;51.482;-0.580;2023-08-06T00:55:21;101241.56;;;13.92
81657;BMP280;71067;51.482;-0.580;2023-08-06T00:57:47;101231.69;;;13.88
81657;BMP280;71067;51.482;-0.580;2023-08-06T01:00:12;101247.94;;;13.90
81657;BMP280;71067;51.482;-0.580;2023-08-06T01:02:38;101247.13;;;13.81
81657;BMP280;71067;51.482;-0.580;2023-08-06T01:05:04;101243.41;;;13.84
81657;BMP280;71067;51.482;-0.580;2023-08-06T01:07:51;101248.97;;;13.81
81657;BMP280;71067;51.482;-0.580;2023-08-06T01:10:33;101254.50;;;13.78
81657;BMP280;71067;51.482;-0.580;2023-08-06T01:13:24;101253.69;;;13.77
81657;BMP280;71067;51.482;-0.580;2023-08-06T01:15:55;101253.19;;;13.74
81657;BMP280;71067;51.482;-0.580;2023-08-06T01:18:23;101261.34;;;13.71
81657;BMP280;71067;51.482;-0.580;2023-08-06T01:20:48;101267.53;;;13.70
81657;BMP280;71067;51.482;-0.580;2023-08-06T01:23:15;101261.03;;;13.66
81657;BMP280;71067;51.482;-0.580;2023-08-06T01:26:05;101269.34;;;13.61
81657;BMP280;71067;51.482;-0.580;2023-08-06T01:31:27;101270.31;;;13.60
81657;BMP280;71067;51.482;-0.580;2023-08-06T01:33:53;101266.94;;;13.60
81657;BMP280;71067;51.482;-0.580;2023-08-06T01:36:19;101268.84;;;13.58
81657;BMP280;71067;51.482;-0.580;2023-08-06T01:38:45;101278.59;;;13.56
81657;BMP280;71067;51.482;-0.580;2023-08-06T01:41:11;101274.88;;;13.58
81657;BMP280;71067;51.482;-0.580;2023-08-06T01:43:36;101284.97;;;13.53
81657;BMP280;71067;51.482;-0.580;2023-08-06T01:46:02;101280.91;;;13.51
81657;BMP280;71067;51.482;-0.580;2023-08-06T01:48:27;101282.88;;;13.49
81657;BMP280;71067;51.482;-0.580;2023-08-06T01:50:52;101273.09;;;13.43
81657;BMP280;71067;51.482;-0.580;2023-08-06T01:53:18;101297.03;;;13.46
81657;BMP280;71067;51.482;-0.580;2023-08-06T01:55:48;101296.72;;;13.41
81657;BMP280;71067;51.482;-0.580;2023-08-06T01:58:13;101292.47;;;13.40
81657;BMP280;71067;51.482;-0.580;2023-08-06T02:00:38;101295.38;;;13.37
81657;BMP280;71067;51.482;-0.580;2023-08-06T02:03:04;101285.81;;;13.30
81657;BMP280;71067;51.482;-0.580;2023-08-06T02:05:29;101294.94;;;13.34
81657;BMP280;71067;51.482;-0.580;2023-08-06T02:07:54;101293.94;;;13.35
81657;BMP280;71067;51.482;-0.580;2023-08-06T02:10:20;101306.31;;;13.33
81657;BMP280;71067;51.482;-0.580;2023-08-06T02:12:45;101298.19;;;13.28
81657;BMP280;71067;51.482;-0.580;2023-08-06T02:15:10;101306.31;;;13.33
81657;BMP280;71067;51.482;-0.580;2023-08-06T02:17:35;101308.25;;;13.31
81657;BMP280;71067;51.482;-0.580;2023-08-06T02:20:01;101306.28;;;13.25
81657;BMP280;71067;51.482;-0.580;2023-08-06T02:22:26;101313.47;;;13.23
81657;BMP280;71067;51.482;-0.580;2023-08-06T02:24:51;101322.09;;;13.23
81657;BMP280;71067;51.482;-0.580;2023-08-06T02:27:17;101318.81;;;13.21
81657;BMP280;71067;51.482;-0.580;2023-08-06T02:29:42;101318.31;;;13.18
81657;BMP280;71067;51.482;-0.580;2023-08-06T02:32:07;101319.31;;;13.17
81657;BMP280;71067;51.482;-0.580;2023-08-06T02:34:33;101320.75;;;13.19
81657;BMP280;71067;51.482;-0.580;2023-08-06T02:36:58;101319.16;;;13.18
81657;BMP280;71067;51.482;-0.580;2023-08-06T02:39:23;101315.72;;;13.18
81657;BMP280;71067;51.482;-0.580;2023-08-06T02:41:49;101308.78;;;13.10
81657;BMP280;71067;51.482;-0.580;2023-08-06T02:44:14;101324.03;;;13.13
81657;BMP280;71067;51.482;-0.580;2023-08-06T02:46:39;101326.16;;;13.10
81657;BMP280;71067;51.482;-0.580;2023-08-06T02:49:06;101317.34;;;13.11
81657;BMP280;71067;51.482;-0.580;2023-08-06T02:51:31;101317.53;;;13.09
81657;BMP280;71067;51.482;-0.580;2023-08-06T02:53:57;101318.00;;;13.05
81657;BMP280;71067;51.482;-0.580;2023-08-06T02:56:22;101323.19;;;13.05
81657;BMP280;71067;51.482;-0.580;2023-08-06T02:58:47;101319.81;;;13.04
81657;BMP280;71067;51.482;-0.580;2023-08-06T03:01:13;101321.88;;;13.01
81657;BMP280;71067;51.482;-0.580;2023-08-06T03:03:39;101319.13;;;12.94
81657;BMP280;71067;51.482;-0.580;2023-08-06T03:06:04;101326.75;;;12.95
81657;BMP280;71067;51.482;-0.580;2023-08-06T03:08:29;101324.00;;;12.89
81657;BMP280;71067;51.482;-0.580;2023-08-06T03:10:55;101323.19;;;12.88
81657;BMP280;71067;51.482;-0.580;2023-08-06T03:13:20;101326.09;;;12.85
81657;BMP280;71067;51.482;-0.580;2023-08-06T03:15:53;101324.16;;;12.87
81657;BMP280;71067;51.482;-0.580;2023-08-06T03:18:19;101341.38;;;12.88
81657;BMP280;71067;51.482;-0.580;2023-08-06T03:20:44;101324.16;;;12.87
81657;BMP280;71067;51.482;-0.580;2023-08-06T03:23:10;101332.09;;;12.86
81657;BMP280;71067;51.482;-0.580;2023-08-06T03:25:35;101333.06;;;12.85
81657;BMP280;71067;51.482;-0.580;2023-08-06T03:28:02;101334.38;;;12.81
81657;BMP280;71067;51.482;-0.580;2023-08-06T03:30:27;101328.34;;;12.72
81657;BMP280;71067;51.482;-0.580;2023-08-06T03:32:52;101333.53;;;12.72
81657;BMP280;71067;51.482;-0.580;2023-08-06T03:35:17;101334.19;;;12.74
81657;BMP280;71067;51.482;-0.580;2023-08-06T03:37:43;101336.47;;;12.69
81657;BMP280;71067;51.482;-0.580;2023-08-06T03:40:09;101335.50;;;12.70
81657;BMP280;71067;51.482;-0.580;2023-08-06T03:42:34;101349.13;;;12.72
81657;BMP280;71067;51.482;-0.580;2023-08-06T03:44:59;101345.25;;;12.68
81657;BMP280;71067;51.482;-0.580;2023-08-06T03:47:25;101357.41;;;12.68
81657;BMP280;71067;51.482;-0.580;2023-08-06T03:49:50;101349.13;;;12.64
81657;BMP280;71067;51.482;-0.580;2023-08-06T03:52:15;101350.91;;;12.64
81657;BMP280;71067;51.482;-0.580;2023-08-06T03:54:40;101352.69;;;12.63
81657;BMP280;71067;51.482;-0.580;2023-08-06T03:57:08;101360.63;;;12.62
81657;BMP280;71067;51.482;-0.580;2023-08-06T03:59:33;101361.91;;;12.58
81657;BMP280;71067;51.482;-0.580;2023-08-06T04:01:58;101365.66;;;12.55
81657;BMP280;71067;51.482;-0.580;2023-08-06T04:04:24;101359.78;;;12.53
81657;BMP280;71067;51.482;-0.580;2023-08-06T04:06:49;101368.09;;;12.57
81657;BMP280;71067;51.482;-0.580;2023-08-06T04:09:14;101371.81;;;12.54
81657;BMP280;71067;51.482;-0.580;2023-08-06T04:11:40;101367.91;;;12.50
81657;BMP280;71067;51.482;-0.580;2023-08-06T04:14:05;101372.91;;;12.52
81657;BMP280;71067;51.482;-0.580;2023-08-06T04:16:30;101374.22;;;12.48
81657;BMP280;71067;51.482;-0.580;2023-08-06T04:18:56;101371.75;;;12.46
81657;BMP280;71067;51.482;-0.580;2023-08-06T04:21:21;101381.50;;;12.44
81657;BMP280;71067;51.482;-0.580;2023-08-06T04:23:46;101377.44;;;12.42
81657;BMP280;71067;51.482;-0.580;2023-08-06T04:26:12;101385.06;;;12.43
81657;BMP280;71067;51.482;-0.580;2023-08-06T04:28:37;101397.06;;;12.44
81657;BMP280;71067;51.482;-0.580;2023-08-06T04:31:02;101384.28;;;12.43
81657;BMP280;71067;51.482;-0.580;2023-08-06T04:33:28;101389.06;;;12.38
81657;BMP280;71067;51.482;-0.580;2023-08-06T04:35:54;101394.63;;;12.35
81657;BMP280;71067;51.482;-0.580;2023-08-06T04:38:20;101397.88;;;12.37
81657;BMP280;71067;51.482;-0.580;2023-08-06T04:40:46;101406.78;;;12.34
81657;BMP280;71067;51.482;-0.580;2023-08-06T04:43:11;101403.53;;;12.32
81657;BMP280;71067;51.482;-0.580;2023-08-06T04:45:36;101418.00;;;12.35
81657;BMP280;71067;51.482;-0.580;2023-08-06T04:48:02;101415.53;;;12.33
81657;BMP280;71067;51.482;-0.580;2023-08-06T04:50:27;101418.78;;;12.35
81657;BMP280;71067;51.482;-0.580;2023-08-06T04:52:52;101420.44;;;12.36
81657;BMP280;71067;51.482;-0.580;2023-08-06T04:55:17;101418.28;;;12.32
81657;BMP280;71067;51.482;-0.580;2023-08-06T04:57:43;101423.47;;;12.32
81657;BMP280;71067;51.482;-0.580;2023-08-06T05:00:08;101413.91;;;12.32
81657;BMP280;71067;51.482;-0.580;2023-08-06T05:02:34;101420.06;;;12.31
81657;BMP280;71067;51.482;-0.580;2023-08-06T05:04:59;101429.50;;;12.32
81657;BMP280;71067;51.482;-0.580;2023-08-06T05:07:25;101431.25;;;12.32
81657;BMP280;71067;51.482;-0.580;2023-08-06T05:09:50;101433.56;;;12.35
81657;BMP280;71067;51.482;-0.580;2023-08-06T05:12:16;101443.25;;;12.33
81657;BMP280;71067;51.482;-0.580;2023-08-06T05:14:41;101432.75;;;12.34
81657;BMP280;71067;51.482;-0.580;2023-08-06T05:17:07;101444.09;;;12.33
81657;BMP280;71067;51.482;-0.580;2023-08-06T05:19:32;101438.06;;;12.33
81657;BMP280;71067;51.482;-0.580;2023-08-06T05:21:57;101447.22;;;12.37
81657;BMP280;71067;51.482;-0.580;2023-08-06T05:24:23;101442.03;;;12.37
81657;BMP280;71067;51.482;-0.580;2023-08-06T05:26:48;101425.25;;;12.31
81657;BMP280;71067;51.482;-0.580;2023-08-06T05:29:15;101457.78;;;12.43
81657;BMP280;71067;51.482;-0.580;2023-08-06T05:31:41;101450.16;;;12.42
81657;BMP280;71067;51.482;-0.580;2023-08-06T05:34:07;101445.47;;;12.45
81657;BMP280;71067;51.482;-0.580;2023-08-06T05:36:32;101445.47;;;12.45
81657;BMP280;71067;51.482;-0.580;2023-08-06T05:38:58;101448.44;;;12.50
81657;BMP280;71067;51.482;-0.580;2023-08-06T05:41:23;101450.00;;;12.51
81657;BMP280;71067;51.482;-0.580;2023-08-06T05:43:48;101448.91;;;12.54
81657;BMP280;71067;51.482;-0.580;2023-08-06T05:46:14;101451.38;;;12.55
81657;BMP280;71067;51.482;-0.580;2023-08-06T05:48:39;101459.81;;;12.57
81657;BMP280;71067;51.482;-0.580;2023-08-06T05:51:04;101457.03;;;12.59
81657;BMP280;71067;51.482;-0.580;2023-08-06T05:53:29;101456.13;;;12.68
81657;BMP280;71067;51.482;-0.580;2023-08-06T05:55:55;101461.03;;;12.71
81657;BMP280;71067;51.482;-0.580;2023-08-06T05:58:20;101464.44;;;12.71
81657;BMP280;71067;51.482;-0.580;2023-08-06T06:00:46;101460.03;;;12.72
81657;BMP280;71067;51.482;-0.580;2023-08-06T06:03:11;101468.84;;;12.79
81657;BMP280;71067;51.482;-0.580;2023-08-06T06:05:39;101463.81;;;12.77
81657;BMP280;71067;51.482;-0.580;2023-08-06T06:08:05;101477.63;;;12.86
81657;BMP280;71067;51.482;-0.580;2023-08-06T06:10:30;101479.63;;;12.92
81657;BMP280;71067;51.482;-0.580;2023-08-06T06:12:56;101481.22;;;12.93
81657;BMP280;71067;51.482;-0.580;2023-08-06T06:15:21;101484.38;;;12.97
81657;BMP280;71067;51.482;-0.580;2023-08-06T06:17:46;101483.06;;;13.01
81657;BMP280;71067;51.482;-0.580;2023-08-06T06:20:12;101483.88;;;13.01
81657;BMP280;71067;51.482;-0.580;2023-08-06T06:22:37;101488.78;;;13.04
81657;BMP280;71067;51.482;-0.580;2023-08-06T06:25:02;101485.69;;;13.09
81657;BMP280;71067;51.482;-0.580;2023-08-06T06:27:28;101480.34;;;13.10
81657;BMP280;71067;51.482;-0.580;2023-08-06T06:29:53;101495.13;;;13.18
81657;BMP280;71067;51.482;-0.580;2023-08-06T06:32:20;101481.50;;;13.16
81657;BMP280;71067;51.482;-0.580;2023-08-06T06:34:45;101497.78;;;13.26
81657;BMP280;71067;51.482;-0.580;2023-08-06T06:37:11;101495.84;;;13.28
81657;BMP280;71067;51.482;-0.580;2023-08-06T06:39:36;101503.34;;;13.39
81657;BMP280;71067;51.482;-0.580;2023-08-06T06:42:01;101504.63;;;13.43
81657;BMP280;71067;51.482;-0.580;2023-08-06T06:44:27;101504.97;;;13.48
81657;BMP280;71067;51.482;-0.580;2023-08-06T06:46:52;101510.16;;;13.56
81657;BMP280;71067;51.482;-0.580;2023-08-06T06:49:17;101506.94;;;13.62
81657;BMP280;71067;51.482;-0.580;2023-08-06T06:51:43;101494.59;;;13.64
81657;BMP280;71067;51.482;-0.580;2023-08-06T06:54:08;101509.88;;;13.75
81657;BMP280;71067;51.482;-0.580;2023-08-06T06:56:33;101503.38;;;13.79
81657;BMP280;71067;51.482;-0.580;2023-08-06T06:58:59;101511.19;;;13.87
81657;BMP280;71067;51.482;-0.580;2023-08-06T07:01:24;101507.09;;;13.92
81657;BMP280;71067;51.482;-0.580;2023-08-06T07:03:49;101499.81;;;13.96
81657;BMP280;71067;51.482;-0.580;2023-08-06T07:06:14;101511.81;;;14.05
81657;BMP280;71067;51.482;-0.580;2023-08-06T07:08:41;101510.88;;;14.14
81657;BMP280;71067;51.482;-0.580;2023-08-06T07:11:06;101506.31;;;14.16
81657;BMP280;71067;51.482;-0.580;2023-08-06T07:13:33;101509.53;;;14.26
81657;BMP280;71067;51.482;-0.580;2023-08-06T07:15:58;101514.56;;;14.36
81657;BMP280;71067;51.482;-0.580;2023-08-06T07:18:24;101525.31;;;14.41
81657;BMP280;71067;51.482;-0.580;2023-08-06T07:20:50;101524.16;;;14.51
81657;BMP280;71067;51.482;-0.580;2023-08-06T07:23:16;101515.66;;;14.57
81657;BMP280;71067;51.482;-0.580;2023-08-06T07:25:41;101529.34;;;14.67
81657;BMP280;71067;51.482;-0.580;2023-08-06T07:28:07;101533.84;;;14.73
81657;BMP280;71067;51.482;-0.580;2023-08-06T07:30:33;101533.81;;;14.81
81657;BMP280;71067;51.482;-0.580;2023-08-06T07:32:58;101537.06;;;14.91
81657;BMP280;71067;51.482;-0.580;2023-08-06T07:35:23;101526.25;;;15.02
81657;BMP280;71067;51.482;-0.580;2023-08-06T07:37:49;101528.81;;;15.11
81657;BMP280;71067;51.482;-0.580;2023-08-06T07:40:14;101524.88;;;15.15
81657;BMP280;71067;51.482;-0.580;2023-08-06T07:42:39;101528.41;;;15.30
81657;BMP280;71067;51.482;-0.580;2023-08-06T07:45:05;101537.16;;;15.37
81657;BMP280;71067;51.482;-0.580;2023-08-06T07:47:31;101526.38;;;15.40
81657;BMP280;71067;51.482;-0.580;2023-08-06T07:49:56;101542.44;;;15.51
81657;BMP280;71067;51.482;-0.580;2023-08-06T07:52:21;101547.78;;;15.58
81657;BMP280;71067;51.482;-0.580;2023-08-06T07:54:47;101548.06;;;15.63
81657;BMP280;71067;51.482;-0.580;2023-08-06T07:57:12;101552.13;;;15.65
81657;BMP280;71067;51.482;-0.580;2023-08-06T07:59:38;101546.66;;;15.75
81657;BMP280;71067;51.482;-0.580;2023-08-06T08:02:04;101547.59;;;15.82
81657;BMP280;71067;51.482;-0.580;2023-08-06T08:04:30;101534.81;;;15.87
81657;BMP280;71067;51.482;-0.580;2023-08-06T08:06:56;101552.97;;;16.03
81657;BMP280;71067;51.482;-0.580;2023-08-06T08:09:21;101546.41;;;16.07
81657;BMP280;71067;51.482;-0.580;2023-08-06T08:11:46;101541.78;;;16.09
81657;BMP280;71067;51.482;-0.580;2023-08-06T08:14:12;101536.06;;;16.13
81657;BMP280;71067;51.482;-0.580;2023-08-06T08:16:37;101531.34;;;16.09
81657;BMP280;71067;51.482;-0.580;2023-08-06T08:19:03;101545.63;;;16.21
81657;BMP280;71067;51.482;-0.580;2023-08-06T08:21:29;101539.72;;;16.19
81657;BMP280;71067;51.482;-0.580;2023-08-06T08:23:54;101545.81;;;16.34
81657;BMP280;71067;51.482;-0.580;2023-08-06T08:26:20;101547.69;;;16.40
81657;BMP280;71067;51.482;-0.580;2023-08-06T08:28:45;101550.47;;;16.39
81657;BMP280;71067;51.482;-0.580;2023-08-06T08:31:11;101553.72;;;16.41
81657;BMP280;71067;51.482;-0.580;2023-08-06T08:33:39;101554.81;;;16.46
81657;BMP280;71067;51.482;-0.580;2023-08-06T08:36:05;101534.25;;;16.29
81657;BMP280;71067;51.482;-0.580;2023-08-06T08:38:30;101562.03;;;16.44
81657;BMP280;71067;51.482;-0.580;2023-08-06T08:40:55;101562.66;;;16.46
81657;BMP280;71067;51.482;-0.580;2023-08-06T08:43:21;101569.13;;;16.50
81657;BMP280;71067;51.482;-0.580;2023-08-06T08:45:50;101567.00;;;16.54
81657;BMP280;71067;51.482;-0.580;2023-08-06T08:48:19;101568.69;;;16.61
81657;BMP280;71067;51.482;-0.580;2023-08-06T08:50:47;101562.75;;;16.67
81657;BMP280;71067;51.482;-0.580;2023-08-06T08:53:16;101555.78;;;16.74
81657;BMP280;71067;51.482;-0.580;2023-08-06T08:55:48;101565.91;;;16.77
81657;BMP280;71067;51.482;-0.580;2023-08-06T08:58:14;101559.97;;;16.83
81657;BMP280;71067;51.482;-0.580;2023-08-06T09:00:45;101557.59;;;16.88
81657;BMP280;71067;51.482;-0.580;2023-08-06T09:03:11;101575.81;;;16.96
81657;BMP280;71067;51.482;-0.580;2023-08-06T09:05:43;101568.66;;;17.05
81657;BMP280;71067;51.482;-0.580;2023-08-06T09:08:11;101566.84;;;17.05
81657;BMP280;71067;51.482;-0.580;2023-08-06T09:10:40;101567.09;;;17.10
81657;BMP280;71067;51.482;-0.580;2023-08-06T09:13:06;101576.22;;;17.14
81657;BMP280;71067;51.482;-0.580;2023-08-06T09:15:31;101575.22;;;17.15
81657;BMP280;71067;51.482;-0.580;2023-08-06T09:17:57;101578.31;;;17.19
81657;BMP280;71067;51.482;-0.580;2023-08-06T09:20:22;101569.63;;;17.18
81657;BMP280;71067;51.482;-0.580;2023-08-06T09:22:48;101587.09;;;17.33
81657;BMP280;71067;51.482;-0.580;2023-08-06T09:25:24;101594.50;;;17.44
81657;BMP280;71067;51.482;-0.580;2023-08-06T09:27:51;101582.81;;;17.46
81657;BMP280;71067;51.482;-0.580;2023-08-06T09:30:37;101588.13;;;17.53
81657;BMP280;71067;51.482;-0.580;2023-08-06T09:33:08;101598.09;;;17.64
81657;BMP280;71067;51.482;-0.580;2023-08-06T09:35:35;101600.59;;;17.72
81657;BMP280;71067;51.482;-0.580;2023-08-06T09:38:08;101594.59;;;17.78
81657;BMP280;71067;51.482;-0.580;2023-08-06T09:40:35;101598.66;;;17.80
81657;BMP280;71067;51.482;-0.580;2023-08-06T09:43:01;101599.25;;;17.82
81657;BMP280;71067;51.482;-0.580;2023-08-06T09:45:34;101596.53;;;17.90
81657;BMP280;71067;51.482;-0.580;2023-08-06T09:48:02;101596.56;;;17.97
81657;BMP280;71067;51.482;-0.580;2023-08-06T09:50:31;101596.16;;;17.93
81657;BMP280;71067;51.482;-0.580;2023-08-06T09:52:58;101599.63;;;18.00
81657;BMP280;71067;51.482;-0.580;2023-08-06T09:55:24;101610.72;;;18.02
81657;BMP280;71067;51.482;-0.580;2023-08-06T09:57:52;101612.75;;;18.07
81657;BMP280;71067;51.482;-0.580;2023-08-06T10:00:18;101618.47;;;18.10
81657;BMP280;71067;51.482;-0.580;2023-08-06T10:02:43;101615.25;;;18.15
81657;BMP280;71067;51.482;-0.580;2023-08-06T10:05:10;101612.44;;;18.16
81657;BMP280;71067;51.482;-0.580;2023-08-06T10:07:36;101613.91;;;18.19
81657;BMP280;71067;51.482;-0.580;2023-08-06T10:10:02;101602.34;;;18.13
81657;BMP280;71067;51.482;-0.580;2023-08-06T10:12:45;101617.50;;;18.18
81657;BMP280;71067;51.482;-0.580;2023-08-06T10:15:14;101620.13;;;18.18
81657;BMP280;71067;51.482;-0.580;2023-08-06T10:17:40;101625.97;;;18.20
81657;BMP280;71067;51.482;-0.580;2023-08-06T10:20:08;101622.94;;;18.16
81657;BMP280;71067;51.482;-0.580;2023-08-06T10:22:34;101617.84;;;18.08
81657;BMP280;71067;51.482;-0.580;2023-08-06T10:25:00;101628.56;;;18.13
81657;BMP280;71067;51.482;-0.580;2023-08-06T10:32:56;101629.50;;;18.06
81657;BMP280;71067;51.482;-0.580;2023-08-06T10:38:14;101638.31;;;17.98
81657;BMP280;71067;51.482;-0.580;2023-08-06T10:40:41;101631.66;;;17.96
81657;BMP280;71067;51.482;-0.580;2023-08-06T10:43:07;101618.31;;;17.91
81657;BMP280;71067;51.482;-0.580;2023-08-06T10:45:37;101630.75;;;17.89
81657;BMP280;71067;51.482;-0.580;2023-08-06T10:48:03;101641.44;;;17.87
81657;BMP280;71067;51.482;-0.580;2023-08-06T10:50:28;101633.22;;;17.90
81657;BMP280;71067;51.482;-0.580;2023-08-06T10:52:54;101632.41;;;17.90
81657;BMP280;71067;51.482;-0.580;2023-08-06T10:55:27;101633.81;;;17.92
81657;BMP280;71067;51.482;-0.580;2023-08-06T10:57:53;101631.66;;;17.96
81657;BMP280;71067;51.482;-0.580;2023-08-06T11:00:21;101632.00;;;17.93
81657;BMP280;71067;51.482;-0.580;2023-08-06T11:02:47;101636.09;;;17.95
81657;BMP280;71067;51.482;-0.580;2023-08-06T11:05:14;101641.31;;;17.95
81657;BMP280;71067;51.482;-0.580;2023-08-06T11:07:39;101643.56;;;17.98
81657;BMP280;71067;51.482;-0.580;2023-08-06T11:10:09;101653.47;;;18.03
81657;BMP280;71067;51.482;-0.580;2023-08-06T11:12:35;101653.47;;;18.03
81657;BMP280;71067;51.482;-0.580;2023-08-06T11:15:01;101642.41;;;18.01
81657;BMP280;71067;51.482;-0.580;2023-08-06T11:17:28;101645.63;;;18.03
81657;BMP280;71067;51.482;-0.580;2023-08-06T11:19:53;101639.97;;;18.06
81657;BMP280;71067;51.482;-0.580;2023-08-06T11:22:20;101649.09;;;18.10
81657;BMP280;71067;51.482;-0.580;2023-08-06T11:24:46;101638.84;;;18.15
81657;BMP280;71067;51.482;-0.580;2023-08-06T11:27:15;101637.09;;;18.22
81657;BMP280;71067;51.482;-0.580;2023-08-06T11:29:41;101644.38;;;18.26
81657;BMP280;71067;51.482;-0.580;2023-08-06T11:32:07;101627.84;;;18.26
81657;BMP280;71067;51.482;-0.580;2023-08-06T11:34:33;101637.38;;;18.33
81657;BMP280;71067;51.482;-0.580;2023-08-06T11:36:59;101633.78;;;18.41
81657;BMP280;71067;51.482;-0.580;2023-08-06T11:39:24;101640.91;;;18.47
81657;BMP280;71067;51.482;-0.580;2023-08-06T11:41:50;101635.91;;;18.52
81657;BMP280;71067;51.482;-0.580;2023-08-06T11:44:19;101629.28;;;18.56
81657;BMP280;71067;51.482;-0.580;2023-08-06T11:46:55;101636.94;;;18.57
81657;BMP280;71067;51.482;-0.580;2023-08-06T11:52:15;101631.09;;;18.62
81657;BMP280;71067;51.482;-0.580;2023-08-06T11:54:41;101625.47;;;18.65
81657;BMP280;71067;51.482;-0.580;2023-08-06T11:57:07;101638.22;;;18.68
81657;BMP280;71067;51.482;-0.580;2023-08-06T11:59:33;101635.41;;;18.76
81657;BMP280;71067;51.482;-0.580;2023-08-06T12:02:03;101633.03;;;18.81
81657;BMP280;71067;51.482;-0.580;2023-08-06T12:04:31;101633.47;;;18.91
81657;BMP280;71067;51.482;-0.580;2023-08-06T12:07:04;101638.75;;;18.98
81657;BMP280;71067;51.482;-0.580;2023-08-06T12:09:30;101630.28;;;19.02
81657;BMP280;71067;51.482;-0.580;2023-08-06T12:11:56;101631.31;;;19.01
81657;BMP280;71067;51.482;-0.580;2023-08-06T12:14:21;101631.31;;;19.01
81657;BMP280;71067;51.482;-0.580;2023-08-06T12:16:46;101636.78;;;19.06
81657;BMP280;71067;51.482;-0.580;2023-08-06T12:19:12;101635.53;;;19.02
81657;BMP280;71067;51.482;-0.580;2023-08-06T12:21:37;101633.53;;;19.04
81657;BMP280;71067;51.482;-0.580;2023-08-06T12:24:02;101632.91;;;19.02
81657;BMP280;71067;51.482;-0.580;2023-08-06T12:26:28;101631.09;;;19.03
81657;BMP280;71067;51.482;-0.580;2023-08-06T12:28:53;101635.16;;;19.05
81657;BMP280;71067;51.482;-0.580;2023-08-06T12:31:20;101629.28;;;19.03
81657;BMP280;71067;51.482;-0.580;2023-08-06T12:33:45;101636.78;;;19.06
81657;BMP280;71067;51.482;-0.580;2023-08-06T12:36:11;101632.16;;;19.08
81657;BMP280;71067;51.482;-0.580;2023-08-06T12:38:36;101641.66;;;19.16
81657;BMP280;71067;51.482;-0.580;2023-08-06T12:41:01;101637.59;;;19.20
81657;BMP280;71067;51.482;-0.580;2023-08-06T12:43:27;101641.28;;;19.25
81657;BMP280;71067;51.482;-0.580;2023-08-06T12:45:53;101645.75;;;19.31
81657;BMP280;71067;51.482;-0.580;2023-08-06T12:48:18;101653.44;;;19.39
81657;BMP280;71067;51.482;-0.580;2023-08-06T12:50:44;101644.56;;;19.40
81657;BMP280;71067;51.482;-0.580;2023-08-06T12:53:09;101657.13;;;19.45
81657;BMP280;71067;51.482;-0.580;2023-08-06T12:55:35;101650.59;;;19.34
81657;BMP280;71067;51.482;-0.580;2023-08-06T12:58:00;101655.44;;;19.31
81657;BMP280;71067;51.482;-0.580;2023-08-06T13:00:28;101666.53;;;19.26
81657;BMP280;71067;51.482;-0.580;2023-08-06T13:02:53;101664.91;;;19.19
81657;BMP280;71067;51.482;-0.580;2023-08-06T13:05:19;101655.72;;;19.02
81657;BMP280;71067;51.482;-0.580;2023-08-06T13:07:44;101660.38;;;19.00
81657;BMP280;71067;51.482;-0.580;2023-08-06T13:10:10;101661.38;;;18.99
81657;BMP280;71067;51.482;-0.580;2023-08-06T13:12:35;101656.72;;;18.94
81657;BMP280;71067;51.482;-0.580;2023-08-06T13:15:01;101652.25;;;18.88
81657;BMP280;71067;51.482;-0.580;2023-08-06T13:17:26;101651.25;;;18.96
81657;BMP280;71067;51.482;-0.580;2023-08-06T13:19:52;101664.38;;;18.96
81657;BMP280;71067;51.482;-0.580;2023-08-06T13:22:17;101664.22;;;18.97
81657;BMP280;71067;51.482;-0.580;2023-08-06T13:24:42;101667.66;;;19.04
81657;BMP280;71067;51.482;-0.580;2023-08-06T13:27:07;101671.09;;;19.11
81657;BMP280;71067;51.482;-0.580;2023-08-06T13:29:34;101665.09;;;19.17
81657;BMP280;71067;51.482;-0.580;2023-08-06T13:32:00;101662.69;;;19.22
81657;BMP280;71067;51.482;-0.580;2023-08-06T13:34:25;101666.72;;;19.25
81657;BMP280;71067;51.482;-0.580;2023-08-06T13:36:50;101667.34;;;19.27
81657;BMP280;71067;51.482;-0.580;2023-08-06T13:39:16;101674.03;;;19.29
81657;BMP280;71067;51.482;-0.580;2023-08-06T13:41:42;101670.38;;;19.30
81657;BMP280;71067;51.482;-0.580;2023-08-06T13:44:08;101673.00;;;19.30
81657;BMP280;71067;51.482;-0.580;2023-08-06T13:46:33;101673.59;;;19.26
81657;BMP280;71067;51.482;-0.580;2023-08-06T13:48:58;101666.31;;;19.21
81657;BMP280;71067;51.482;-0.580;2023-08-06T13:51:24;101664.31;;;19.23
81657;BMP280;71067;51.482;-0.580;2023-08-06T13:53:49;101663.50;;;19.23